createdAt,value
2022-09-28T00:01:15.804Z,93.10
2022-09-28T00:03:42.670Z,93.00
2022-09-28T00:06:12.867Z,93.00
2022-09-28T00:08:40.575Z,93.00
2022-09-28T00:11:11.068Z,92.90
2022-09-28T00:13:37.742Z,92.80
2022-09-28T00:16:10.615Z,92.80
2022-09-28T00:18:37.362Z,92.80
2022-09-28T00:21:17.082Z,92.70
2022-09-28T00:24:03.819Z,92.80
2022-09-28T00:26:32.915Z,92.70
2022-09-28T00:29:01.860Z,92.60
2022-09-28T00:31:31.671Z,92.60
2022-09-28T00:34:00.211Z,92.50
2022-09-28T00:36:32.088Z,92.50
2022-09-28T00:39:02.787Z,92.50
2022-09-28T00:41:29.663Z,92.40
2022-09-28T00:44:21.330Z,92.40
2022-09-28T00:46:50.335Z,92.50
2022-09-28T00:49:19.819Z,92.40
2022-09-28T00:51:47.786Z,92.60
2022-09-28T00:54:16.226Z,92.60
2022-09-28T00:56:47.357Z,92.70
2022-09-28T00:59:15.185Z,92.70
2022-09-28T01:01:41.893Z,92.80
2022-09-28T01:04:08.713Z,92.80
2022-09-28T01:06:37.983Z,92.80
2022-09-28T01:09:08.419Z,92.80
2022-09-28T01:11:38.424Z,92.90
2022-09-28T01:14:09.868Z,92.90
2022-09-28T01:16:45.401Z,92.90
2022-09-28T01:19:51.401Z,93.00
2022-09-28T01:22:24.268Z,93.10
2022-09-28T01:25:27.749Z,93.00
2022-09-28T01:28:14.210Z,93.20
2022-09-28T01:30:58.401Z,93.20
2022-09-28T01:33:29.989Z,93.20
2022-09-28T01:36:10.076Z,93.20
2022-09-28T01:38:46.060Z,93.30
2022-09-28T01:41:13.800Z,93.30
2022-09-28T01:43:43.497Z,93.20
2022-09-28T01:46:15.635Z,93.30
2022-09-28T01:48:56.337Z,93.40
2022-09-28T01:51:30.258Z,93.40
2022-09-28T01:54:01.629Z,93.40
2022-09-28T01:56:34.411Z,93.40
2022-09-28T01:59:13.696Z,93.40
2022-09-28T02:01:51.718Z,93.40
2022-09-28T02:04:23.026Z,93.40
2022-09-28T02:06:56.154Z,93.30
2022-09-28T02:09:33.605Z,93.30
2022-09-28T02:12:07.522Z,93.30
2022-09-28T02:14:37.677Z,93.30
2022-09-28T02:17:04.773Z,93.30
2022-09-28T02:19:33.005Z,93.30
2022-09-28T02:22:26.318Z,93.30
2022-09-28T02:24:58.844Z,93.30
2022-09-28T02:27:42.643Z,93.30
2022-09-28T02:30:10.290Z,93.30
2022-09-28T02:32:42.494Z,93.30
2022-09-28T02:35:12.016Z,93.40
2022-09-28T02:37:48.275Z,93.40
2022-09-28T02:40:20.677Z,93.30
2022-09-28T02:43:10.750Z,93.40
2022-09-28T02:46:02.019Z,93.60
2022-09-28T02:49:10.658Z,93.60
2022-09-28T02:52:06.290Z,93.60
2022-09-28T02:54:46.258Z,93.50
2022-09-28T02:57:37.261Z,93.50
2022-09-28T03:00:12.897Z,93.50
2022-09-28T03:03:00.345Z,93.40
2022-09-28T03:05:55.633Z,93.50
2022-09-28T03:08:27.702Z,93.60
2022-09-28T03:11:13.798Z,93.40
2022-09-28T03:13:41.565Z,93.40
2022-09-28T03:16:14.490Z,93.40
2022-09-28T03:18:44.197Z,93.50
2022-09-28T03:21:15.285Z,93.40
2022-09-28T03:23:42.450Z,93.40
2022-09-28T03:26:12.989Z,93.40
2022-09-28T03:28:40.741Z,93.40
2022-09-28T03:31:11.262Z,93.40
2022-09-28T03:33:38.214Z,93.30
2022-09-28T03:36:05.881Z,93.30
2022-09-28T03:38:32.619Z,93.40
2022-09-28T03:41:00.612Z,93.40
2022-09-28T03:43:33.630Z,93.50
2022-09-28T03:46:02.977Z,93.50
2022-09-28T03:48:37.109Z,93.50
2022-09-28T03:51:06.819Z,93.50
2022-09-28T03:53:33.728Z,93.50
2022-09-28T03:56:13.154Z,93.50
2022-09-28T03:58:41.244Z,93.50
2022-09-28T04:01:17.377Z,93.50
2022-09-28T04:03:46.476Z,93.50
2022-09-28T04:06:13.732Z,93.50
2022-09-28T04:08:40.510Z,93.50
2022-09-28T04:11:20.144Z,93.50
2022-09-28T04:13:50.257Z,93.60
2022-09-28T04:16:18.383Z,93.50
2022-09-28T04:18:54.179Z,93.50
2022-09-28T04:21:39.864Z,93.50
2022-09-28T04:24:12.761Z,93.50
2022-09-28T04:26:39.461Z,93.50
2022-09-28T04:29:18.922Z,93.60
2022-09-28T04:31:56.754Z,93.50
2022-09-28T04:34:36.359Z,93.50
2022-09-28T04:37:04.975Z,93.50
2022-09-28T04:39:31.771Z,93.50
2022-09-28T04:41:58.518Z,93.40
2022-09-28T04:44:27.066Z,93.40
2022-09-28T04:47:04.854Z,93.40
2022-09-28T04:49:32.070Z,93.40
2022-09-28T04:52:08.424Z,93.40
2022-09-28T04:54:35.563Z,93.40
2022-09-28T04:57:03.626Z,93.40
2022-09-28T04:59:30.249Z,93.40
2022-09-28T05:01:56.996Z,93.40
2022-09-28T05:04:49.542Z,93.40
2022-09-28T05:07:38.562Z,93.40
2022-09-28T05:10:06.935Z,93.40
2022-09-28T05:12:34.213Z,93.40
2022-09-28T05:15:00.941Z,93.50
2022-09-28T05:17:27.812Z,93.50
2022-09-28T05:20:20.756Z,93.50
2022-09-28T05:22:47.493Z,93.50
2022-09-28T05:25:14.505Z,93.40
2022-09-28T05:27:56.942Z,93.50
2022-09-28T05:30:46.936Z,93.50
2022-09-28T05:33:32.235Z,93.50
2022-09-28T05:36:13.205Z,93.50
2022-09-28T05:38:41.854Z,93.50
2022-09-28T05:41:08.925Z,93.60
2022-09-28T05:43:36.219Z,93.60
2022-09-28T05:46:05.671Z,93.60
2022-09-28T05:48:34.327Z,93.70
2022-09-28T05:51:01.562Z,93.70
2022-09-28T05:53:28.312Z,93.70
2022-09-28T05:56:00.452Z,93.70
2022-09-28T05:58:28.422Z,93.70
2022-09-28T06:00:58.795Z,93.70
2022-09-28T06:03:25.738Z,93.70
2022-09-28T06:05:53.795Z,93.70
2022-09-28T06:08:20.884Z,93.80
2022-09-28T06:11:00.256Z,93.80
2022-09-28T06:13:27.777Z,93.90
2022-09-28T06:15:54.718Z,93.90
2022-09-28T06:18:21.390Z,94.30
2022-09-28T06:21:08.172Z,94.00
2022-09-28T06:23:39.948Z,94.00
2022-09-28T06:26:07.392Z,94.00
2022-09-28T06:28:34.228Z,94.00
2022-09-28T06:31:01.118Z,94.00
2022-09-28T06:33:30.137Z,94.10
2022-09-28T06:35:59.302Z,94.10
2022-09-28T06:38:26.494Z,94.10
2022-09-28T06:40:53.600Z,94.00
2022-09-28T06:43:20.893Z,94.00
2022-09-28T06:46:09.713Z,93.90
2022-09-28T06:48:55.061Z,93.90
2022-09-28T06:51:50.709Z,93.70
2022-09-28T06:54:47.125Z,94.10
2022-09-28T06:57:29.788Z,93.80
2022-09-28T06:59:56.427Z,93.80
2022-09-28T07:02:23.177Z,93.90
2022-09-28T07:05:13.686Z,93.80
2022-09-28T07:07:55.512Z,93.90
2022-09-28T07:10:45.849Z,94.00
2022-09-28T07:16:15.176Z,94.20
2022-09-28T07:18:42.167Z,94.20
2022-09-28T07:21:13.714Z,94.10
2022-09-28T07:23:52.397Z,94.00
2022-09-28T07:26:24.577Z,94.00
2022-09-28T07:29:17.492Z,94.00
2022-09-28T07:31:57.292Z,94.00
2022-09-28T07:34:48.578Z,94.00
2022-09-28T07:37:26.477Z,94.00
2022-09-28T07:40:12.437Z,94.00
2022-09-28T07:42:39.512Z,94.00
2022-09-28T07:45:07.458Z,93.90
2022-09-28T07:47:35.404Z,93.90
2022-09-28T07:50:31.395Z,93.70
2022-09-28T07:53:26.170Z,93.60
2022-09-28T07:56:13.890Z,93.50
2022-09-28T07:58:47.824Z,93.50
2022-09-28T08:01:49.912Z,93.60
2022-09-28T08:04:17.483Z,93.60
2022-09-28T08:06:48.215Z,93.50
2022-09-28T08:09:15.007Z,93.50
2022-09-28T08:12:00.694Z,93.40
2022-09-28T08:14:43.594Z,93.30
2022-09-28T08:17:23.357Z,93.30
2022-09-28T08:20:12.948Z,93.10
2022-09-28T08:22:39.808Z,93.20
2022-09-28T08:25:07.130Z,93.20
2022-09-28T08:27:33.910Z,93.20
2022-09-28T08:30:01.636Z,93.20
2022-09-28T08:33:00.854Z,93.30
2022-09-28T08:35:42.998Z,93.30
2022-09-28T08:38:26.537Z,93.10
2022-09-28T08:41:11.787Z,93.10
2022-09-28T08:44:14.305Z,93.00
2022-09-28T08:47:50.038Z,92.80
2022-09-28T08:50:32.729Z,92.90
2022-09-28T08:53:38.430Z,92.90
2022-09-28T08:56:24.366Z,92.60
2022-09-28T08:58:57.180Z,92.60
2022-09-28T09:01:30.086Z,92.80
2022-09-28T09:03:58.062Z,92.80
2022-09-28T09:06:59.350Z,92.80
2022-09-28T09:09:39.201Z,92.70
2022-09-28T09:12:18.451Z,92.50
2022-09-28T09:14:52.476Z,92.60
2022-09-28T09:17:37.983Z,92.60
2022-09-28T09:20:25.664Z,92.20
2022-09-28T09:23:16.957Z,93.00
2022-09-28T09:25:54.832Z,93.60
2022-09-28T09:28:43.843Z,93.40
2022-09-28T09:31:28.729Z,93.90
2022-09-28T09:34:31.051Z,94.50
2022-09-28T09:37:50.074Z,94.20
2022-09-28T09:40:38.496Z,94.20
2022-09-28T09:43:42.115Z,93.90
2022-09-28T09:46:57.554Z,93.40
2022-09-28T09:49:47.961Z,91.30
2022-09-28T09:52:26.161Z,91.30
2022-09-28T09:54:56.243Z,90.60
2022-09-28T09:57:39.995Z,91.40
2022-09-28T10:00:17.305Z,91.50
2022-09-28T10:03:02.251Z,91.20
2022-09-28T10:05:42.770Z,91.20
2022-09-28T10:08:09.457Z,89.90
2022-09-28T10:11:16.520Z,90.30
2022-09-28T10:13:49.135Z,86.50
2022-09-28T10:16:37.947Z,88.60
2022-09-28T10:19:13.573Z,84.60
2022-09-28T10:22:02.956Z,80.90
2022-09-28T10:24:34.202Z,79.30
2022-09-28T10:27:08.201Z,77.70
2022-09-28T10:29:44.114Z,77.20
2022-09-28T10:32:26.277Z,76.70
2022-09-28T10:35:18.578Z,74.70
2022-09-28T10:37:52.147Z,73.40
2022-09-28T10:40:46.430Z,75.30
2022-09-28T10:43:36.860Z,74.00
2022-09-28T10:46:21.140Z,73.20
2022-09-28T10:48:53.735Z,73.60
2022-09-28T10:51:51.922Z,72.40
2022-09-28T10:54:26.523Z,70.20
2022-09-28T10:56:54.892Z,71.60
2022-09-28T10:59:54.080Z,71.50
2022-09-28T11:02:36.489Z,71.60
2022-09-28T11:05:22.672Z,71.00
2022-09-28T11:07:52.672Z,71.60
2022-09-28T11:10:27.664Z,71.70
2022-09-28T11:12:59.545Z,71.60
2022-09-28T11:15:31.330Z,71.50
2022-09-28T11:18:31.291Z,71.90
2022-09-28T11:21:14.721Z,70.90
2022-09-28T11:24:06.971Z,71.40
2022-09-28T11:26:43.575Z,71.50
2022-09-28T11:29:22.185Z,72.80
2022-09-28T11:32:05.680Z,73.20
2022-09-28T11:34:59.254Z,72.80
2022-09-28T11:37:45.188Z,73.80
2022-09-28T11:40:28.669Z,73.40
2022-09-28T11:42:58.533Z,74.50
2022-09-28T11:45:41.342Z,74.30
2022-09-28T11:48:29.614Z,73.90
2022-09-28T11:51:31.272Z,73.80
2022-09-28T11:54:18.093Z,73.00
2022-09-28T11:56:48.538Z,72.60
2022-09-28T11:59:28.978Z,72.90
2022-09-28T12:02:00.563Z,72.40
2022-09-28T12:04:52.629Z,72.70
2022-09-28T12:07:41.141Z,72.20
2022-09-28T12:10:21.781Z,72.50
2022-09-28T12:13:16.569Z,72.40
2022-09-28T12:19:13.249Z,72.70
2022-09-28T12:21:56.711Z,73.10
2022-09-28T12:24:45.897Z,72.70
2022-09-28T12:27:27.039Z,72.50
2022-09-28T12:30:15.824Z,72.60
2022-09-28T12:33:03.812Z,73.30
2022-09-28T12:35:59.489Z,74.00
2022-09-28T12:39:17.744Z,73.50
2022-09-28T12:42:07.625Z,73.60
2022-09-28T12:44:58.574Z,73.60
2022-09-28T12:47:53.909Z,72.80
2022-09-28T12:50:53.961Z,72.60
2022-09-28T12:53:29.522Z,72.30
2022-09-28T12:56:21.487Z,72.60
2022-09-28T12:59:01.351Z,72.70
2022-09-28T13:01:55.868Z,72.60
2022-09-28T13:04:39.001Z,72.30
2022-09-28T13:07:13.657Z,72.20
2022-09-28T13:09:50.125Z,72.60
2022-09-28T13:12:25.227Z,72.70
2022-09-28T13:15:27.706Z,72.80
2022-09-28T13:18:08.023Z,73.20
2022-09-28T13:20:54.085Z,73.50
2022-09-28T13:23:27.838Z,73.30
2022-09-28T13:26:07.027Z,72.90
2022-09-28T13:28:35.494Z,73.60
2022-09-28T13:31:04.280Z,73.50
2022-09-28T13:33:36.535Z,73.60
2022-09-28T13:36:27.720Z,73.90
2022-09-28T13:38:56.540Z,73.60
2022-09-28T13:41:29.660Z,74.10
2022-09-28T13:44:08.877Z,74.00
2022-09-28T13:46:57.379Z,73.60
2022-09-28T13:49:30.755Z,73.20
2022-09-28T13:52:13.293Z,73.00
2022-09-28T13:54:45.698Z,72.80
2022-09-28T13:57:29.786Z,73.40
2022-09-28T14:00:23.732Z,72.70
2022-09-28T14:03:01.293Z,72.70
2022-09-28T14:05:53.179Z,72.90
2022-09-28T14:08:38.306Z,72.50
2022-09-28T14:11:34.165Z,72.60
2022-09-28T14:14:07.892Z,72.80
2022-09-28T14:16:36.764Z,73.30
2022-09-28T14:19:24.155Z,73.20
2022-09-28T14:21:58.273Z,72.20
2022-09-28T14:24:30.169Z,71.90
2022-09-28T14:27:24.726Z,72.30
2022-09-28T14:30:06.425Z,71.20
2022-09-28T14:32:36.410Z,71.50
2022-09-28T14:35:18.605Z,71.60
2022-09-28T14:38:07.808Z,71.00
2022-09-28T14:41:09.266Z,71.40
2022-09-28T14:43:45.058Z,71.20
2022-09-28T14:46:11.853Z,71.60
2022-09-28T14:48:48.901Z,71.70
2022-09-28T14:51:27.413Z,71.90
2022-09-28T14:54:00.196Z,70.90
2022-09-28T14:56:32.574Z,71.30
2022-09-28T14:59:00.377Z,71.40
2022-09-28T15:01:27.466Z,71.40
2022-09-28T15:04:04.435Z,71.40
2022-09-28T15:06:48.417Z,71.50
2022-09-28T15:09:32.868Z,71.10
2022-09-28T15:12:03.544Z,71.10
2022-09-28T15:14:33.053Z,71.30
2022-09-28T15:17:02.765Z,71.50
2022-09-28T15:19:44.530Z,71.50
2022-09-28T15:22:16.326Z,71.20
2022-09-28T15:24:53.728Z,70.90
2022-09-28T15:27:20.323Z,70.60
2022-09-28T15:30:01.621Z,70.90
2022-09-28T15:32:31.618Z,70.30
2022-09-28T15:35:14.364Z,70.60
2022-09-28T15:37:41.839Z,70.20
2022-09-28T15:40:15.033Z,70.60
2022-09-28T15:42:42.070Z,70.60
2022-09-28T15:45:30.613Z,71.10
2022-09-28T15:48:19.833Z,71.10
2022-09-28T15:51:03.754Z,70.90
2022-09-28T15:53:31.220Z,70.90
2022-09-28T15:56:09.722Z,71.30
2022-09-28T15:58:37.949Z,71.40
2022-09-28T16:01:36.087Z,71.60
2022-09-28T16:04:40.468Z,71.50
2022-09-28T16:07:13.237Z,72.10
2022-09-28T16:10:25.920Z,72.40
2022-09-28T16:13:00.005Z,72.60
2022-09-28T16:15:28.260Z,72.80
2022-09-28T16:18:20.587Z,73.00
2022-09-28T16:20:50.991Z,73.50
2022-09-28T16:23:31.079Z,73.40
2022-09-28T16:26:06.384Z,73.60
2022-09-28T16:28:34.565Z,73.70
2022-09-28T16:31:28.684Z,73.70
2022-09-28T16:34:11.414Z,73.80
2022-09-28T16:36:47.145Z,73.90
2022-09-28T16:39:16.395Z,74.10
2022-09-28T16:41:48.384Z,74.40
2022-09-28T16:44:36.755Z,74.80
2022-09-28T16:47:03.444Z,75.00
2022-09-28T16:49:32.020Z,75.00
2022-09-28T16:51:59.406Z,75.10
2022-09-28T16:54:44.326Z,75.20
2022-09-28T16:57:14.671Z,75.40
2022-09-28T16:59:41.395Z,75.60
2022-09-28T17:05:07.019Z,75.80
2022-09-28T17:07:34.048Z,75.90
2022-09-28T17:10:00.737Z,76.10
2022-09-28T17:12:28.824Z,76.30
2022-09-28T17:14:55.494Z,76.60
2022-09-28T17:17:22.624Z,77.00
2022-09-28T17:19:49.315Z,77.30
2022-09-28T17:22:16.672Z,77.50
2022-09-28T17:24:45.423Z,77.60
2022-09-28T17:27:18.487Z,77.80
2022-09-28T17:29:45.188Z,78.10
2022-09-28T17:32:18.805Z,78.20
2022-09-28T17:34:55.810Z,78.30
2022-09-28T17:37:28.178Z,78.20
2022-09-28T17:39:54.784Z,78.30
2022-09-28T17:42:21.427Z,78.40
2022-09-28T17:44:48.074Z,78.50
2022-09-28T17:47:14.861Z,78.70
2022-09-28T17:49:42.165Z,78.90
2022-09-28T17:52:09.574Z,79.20
2022-09-28T17:54:36.159Z,79.10
2022-09-28T17:57:02.905Z,78.20
2022-09-28T17:59:29.589Z,77.50
2022-09-28T18:01:59.389Z,77.10
2022-09-28T18:04:50.900Z,76.90
2022-09-28T18:07:15.736Z,76.90
2022-09-28T18:09:42.356Z,77.80
2022-09-28T18:12:09.171Z,77.20
2022-09-28T18:14:36.015Z,77.50
2022-09-28T18:17:02.872Z,77.90
2022-09-28T18:19:32.140Z,78.40
2022-09-28T18:21:59.360Z,79.00
2022-09-28T18:24:25.993Z,79.20
2022-09-28T18:26:52.641Z,79.40
2022-09-28T18:29:19.295Z,79.80
2022-09-28T18:31:48.646Z,80.00
2022-09-28T18:34:17.096Z,80.30
2022-09-28T18:36:44.192Z,80.60
2022-09-28T18:39:11.497Z,80.90
2022-09-28T18:41:38.505Z,81.10
2022-09-28T18:44:06.991Z,81.50
2022-09-28T18:46:36.566Z,81.90
2022-09-28T18:49:04.590Z,82.20
2022-09-28T18:51:32.260Z,82.60
2022-09-28T18:54:01.961Z,82.90
2022-09-28T18:56:28.732Z,83.60
2022-09-28T18:58:56.742Z,83.80
2022-09-28T19:01:31.543Z,84.40
2022-09-28T19:04:00.442Z,84.80
2022-09-28T19:06:27.844Z,85.50
2022-09-28T19:08:55.637Z,85.80
2022-09-28T19:11:25.582Z,86.10
2022-09-28T19:13:54.936Z,86.30
2022-09-28T19:16:25.008Z,87.00
2022-09-28T19:18:58.586Z,87.20
2022-09-28T19:21:27.303Z,87.80
2022-09-28T19:23:55.256Z,87.20
2022-09-28T19:26:25.151Z,87.30
2022-09-28T19:28:52.273Z,87.60
2022-09-28T19:31:19.877Z,87.50
2022-09-28T19:33:48.740Z,87.80
2022-09-28T19:36:24.585Z,88.00
2022-09-28T19:38:54.435Z,88.20
2022-09-28T19:41:44.737Z,88.20
2022-09-28T19:44:29.738Z,88.50
2022-09-28T19:47:09.087Z,88.80
2022-09-28T19:49:41.379Z,89.20
2022-09-28T19:52:15.675Z,89.10
2022-09-28T19:54:57.245Z,88.90
2022-09-28T19:57:25.922Z,89.10
2022-09-28T19:59:54.990Z,88.90
2022-09-28T20:02:24.703Z,89.00
2022-09-28T20:04:51.342Z,89.50
2022-09-28T20:07:18.023Z,89.20
2022-09-28T20:09:44.979Z,89.30
2022-09-28T20:12:11.612Z,89.40
2022-09-28T20:14:40.430Z,89.50
2022-09-28T20:17:07.631Z,89.50
2022-09-28T20:19:34.870Z,89.70
2022-09-28T20:22:02.470Z,89.60
2022-09-28T20:24:29.202Z,89.70
2022-09-28T20:26:55.990Z,89.60
2022-09-28T20:29:24.181Z,89.60
2022-09-28T20:31:51.640Z,89.60
2022-09-28T20:34:18.306Z,89.60
2022-09-28T20:36:45.004Z,89.50
2022-09-28T20:39:12.082Z,89.40
2022-09-28T20:41:38.853Z,89.50
2022-09-28T20:44:06.804Z,89.30
2022-09-28T20:46:35.379Z,89.40
2022-09-28T20:49:02.864Z,89.40
2022-09-28T20:51:29.480Z,89.40
2022-09-28T20:53:58.098Z,89.50
2022-09-28T20:56:27.131Z,89.70
2022-09-28T20:58:54.949Z,89.70
2022-09-28T21:01:24.070Z,89.80
2022-09-28T21:03:53.964Z,90.00
2022-09-28T21:06:22.012Z,90.20
2022-09-28T21:08:49.587Z,90.10
2022-09-28T21:11:18.757Z,90.20
2022-09-28T21:13:45.429Z,90.30
2022-09-28T21:16:14.315Z,90.30
2022-09-28T21:18:41.492Z,90.80
2022-09-28T21:21:11.364Z,90.50
2022-09-28T21:23:38.785Z,90.90
2022-09-28T21:26:26.779Z,90.60
2022-09-28T21:28:59.189Z,91.00
2022-09-28T21:31:29.353Z,91.00
2022-09-28T21:33:57.293Z,90.90
2022-09-28T21:36:24.974Z,91.00
2022-09-28T21:38:51.654Z,91.10
2022-09-28T21:41:18.263Z,91.10
2022-09-28T21:43:45.811Z,91.20
2022-09-28T21:46:12.757Z,91.30
2022-09-28T21:48:39.535Z,91.30
2022-09-28T21:51:08.994Z,91.40
2022-09-28T21:53:37.091Z,91.50
2022-09-28T21:56:06.353Z,91.50
2022-09-28T21:58:35.274Z,91.50
2022-09-28T22:01:10.831Z,91.50
2022-09-28T22:03:37.484Z,91.60
2022-09-28T22:06:05.368Z,91.90
2022-09-28T22:08:32.700Z,91.70
2022-09-28T22:11:03.444Z,91.70
2022-09-28T22:13:32.128Z,91.90
2022-09-28T22:15:59.101Z,91.80
2022-09-28T22:18:30.928Z,91.80
2022-09-28T22:21:06.550Z,91.90
2022-09-28T22:23:34.506Z,92.10
2022-09-28T22:26:03.782Z,91.90
2022-09-28T22:28:30.407Z,91.90
2022-09-28T22:30:57.645Z,91.90
2022-09-28T22:33:25.079Z,91.90
2022-09-28T22:35:52.051Z,91.90
2022-09-28T22:38:20.072Z,91.90
2022-09-28T22:40:54.926Z,91.90
2022-09-28T22:43:23.362Z,92.10
2022-09-28T22:45:50.335Z,92.00
2022-09-28T22:48:17.014Z,92.30
2022-09-28T22:50:50.915Z,92.00
2022-09-28T22:53:18.827Z,92.20
2022-09-28T22:55:45.555Z,92.00
2022-09-28T22:58:12.256Z,91.90
2022-09-28T23:00:39.086Z,91.90
2022-09-28T23:03:05.866Z,91.90
2022-09-28T23:05:33.040Z,91.90
2022-09-28T23:07:59.816Z,91.90
2022-09-28T23:10:26.442Z,91.80
2022-09-28T23:12:56.389Z,91.80
2022-09-28T23:15:23.242Z,91.80
2022-09-28T23:17:53.877Z,91.70
2022-09-28T23:20:21.649Z,91.80
2022-09-28T23:22:49.425Z,91.70
2022-09-28T23:25:18.536Z,91.70
2022-09-28T23:27:49.473Z,91.70
2022-09-28T23:30:17.751Z,91.70
2022-09-28T23:32:44.813Z,91.60
2022-09-28T23:35:12.793Z,91.60
2022-09-28T23:37:39.787Z,91.60
2022-09-28T23:40:07.239Z,91.50
2022-09-28T23:42:35.376Z,91.50
2022-09-28T23:45:01.988Z,91.60
2022-09-28T23:47:28.619Z,91.60
2022-09-28T23:49:55.252Z,91.70
2022-09-28T23:52:21.854Z,91.70
2022-09-28T23:54:48.499Z,91.80
2022-09-28T23:57:15.111Z,91.80
2022-09-28T23:59:41.698Z,91.80
